Smith Valley, Nevada Weather observations

Data are for 10 minute period ending at time listed.
 Day   Time   Solar   Ave.   Ave.  Ave.  Vector  Max.   Baro.   Total    
  of    of     Rad.   Air    Rel.  Wind   Wind   Wind  Press.  Precip.   
Year   Day            Temp.  Hum.  Speed  Dir.   Gust                    
2015   (PST)  Kw/m2    F      %     mph   deg.    mph    mb.     in.     
-------------------------------------------------------------------------
 142    0:50   0.00   46.7    90    2.2   340     2.9   850.7    0.00 
 142    1:00   0.00   46.7    90    1.4    21     2.1   850.7    0.00 
 142    1:10   0.00   46.4    90    1.3   251     2.3   850.6    0.00 
 142    1:20   0.00   46.0    90    1.7   280     3.2   850.6    0.00 
 142    1:30   0.00   45.8    91    0.9   264     1.8   850.6    0.00 
 142    1:40   0.00   45.7    91    2.5   241     3.4   850.7    0.00 
 142    1:50   0.00   45.6    91    2.3   264     3.4   850.7    0.00 
 142    2:00   0.00   45.6    92    1.9   260     2.5   850.7    0.00 
 142    2:10   0.00   45.7    92    1.1   262     2.3   850.7    0.00 
 142    2:20   0.00   46.0    92    1.9   162     2.9   850.7    0.00 
 142    2:30   0.00   46.1    91    0.7   182     1.2   850.7    0.00 
 142    2:40   0.00   46.2    91    0.5   134     1.5   850.6    0.00 
 142    2:50   0.00   46.2    91    0.7   103     1.5   850.6    0.00 
 142    3:00   0.00   46.1    91    1.1    49     1.5   850.6    0.00 
 142    3:10   0.00   46.2    91    0.2    14     0.9   850.6    0.00 
 142    3:20   0.00   46.1    91    0.5    20     1.8   850.6    0.00 
 142    3:30   0.00   46.0    91    1.6    46     2.3   850.7    0.00 
 142    3:40   0.00   46.1    91    1.1    36     2.6   850.7    0.00 
 142    3:50   0.00   46.1    91    1.1    26     1.7   850.7    0.00 
 142    4:00   0.00   46.2    92    1.1    28     1.4   850.7    0.00 
 142    4:10   0.00   46.2    91    1.1     2     1.7   850.8    0.00 
 142    4:20   0.00   46.2    91    1.5   319     1.8   850.8    0.00 
 142    4:30   0.00   46.3    91    0.9   341     1.6   850.8    0.00 
 142    4:40   0.00   46.3    91    0.7   307     1.2   850.8    0.00 
 142    4:50   0.00   46.2    91    1.3   307     1.7   850.8    0.00 
 142    5:00   0.00   46.3    91    0.5   346     1.2   850.9    0.00 
 142    5:10   0.01   46.3    91    0.1    22     0.7   850.9    0.00 
 142    5:20   0.01   46.4    91    0.0     0     0.0   851.0    0.00 
 142    5:30   0.02   46.3    91    0.1    16     0.7   851.0    0.00 
 142    5:40   0.02   46.5    90    0.9   314     1.7   851.0    0.00 
 142    5:50   0.03   46.6    90    1.2   268     1.7   851.1    0.00 
 142    6:00   0.04   46.7    90    0.9   256     1.3   851.1    0.00 
 142    6:10   0.06   46.8    90    1.2   246     1.7   851.1    0.00 
 142    6:20   0.07   47.0    90    1.9   256     2.6   851.1    0.00 
 142    6:30   0.09   47.3    90    2.5   294     3.2   851.1    0.00 
 142    6:40   0.13   47.4    90    2.6   321     3.9   851.2    0.00 
 142    6:50   0.16   47.7    89    3.6   350     5.8   851.2    0.00 
 142    7:00   0.25   47.9    86    3.5     4     4.8   851.2    0.00 
 142    7:10   0.29   49.1    82    2.8    35     4.3   851.3    0.00 
 142    7:20   0.19   49.2    82    2.6    34     4.8   851.4    0.00 
 142    7:30   0.14   49.4    81    0.9    73     3.0   851.4    0.00 
 142    7:40   0.16   49.7    80    1.8   230     3.8   851.4    0.00 
 142    7:50   0.23   49.9    81    4.0   251     6.4   851.3    0.00 
 142    8:00   0.35   50.9    80    2.9   259     6.1   851.4    0.00 
 142    8:10   0.59   52.4    74    1.3    30     2.8   851.4    0.00 
 142    8:20   0.59   52.9    72    1.1    32     2.7   851.4    0.00 
 142    8:30   0.58   54.3    68    1.4    84     4.6   851.3    0.00 
 142    8:40   0.40   53.6    69    1.3    60     3.7   851.3    0.00 
 142    8:50   0.48   53.6    68    1.7    80     4.2   851.2    0.00 
 142    9:00   0.77   55.1    67    1.5    58     4.3   851.2    0.00 
 142    9:10   0.81   55.9    67    2.1   128     5.1   851.2    0.00 
 142    9:20   0.81   56.2    62    2.8    12     7.2   851.2    0.00 
 142    9:30   0.36   55.3    64    2.7    58     6.8   851.2    0.00 
 142    9:40   0.87   56.9    60    2.6    79     7.8   851.2    0.00 
 142    9:50   0.74   56.4    60    4.2    51     8.0   851.1    0.00 
 142   10:00   0.51   56.4    60    4.1    41     6.7   851.1    0.00 
 142   10:10   0.50   55.7    60    3.7    36     7.7   851.2    0.00 
 142   10:20   0.69   56.4    58    2.8   104     7.3   851.2    0.00 
 142   10:30   0.58   56.9    55    2.5    36     6.1   851.2    0.00 
 142   10:40   0.59   56.5    57    3.6    42     6.4   851.2    0.00 
 142   10:50   0.99   57.8    55    2.1   102     5.3   851.1    0.00 
 142   11:00   0.96   58.5    56    4.2   323    12.5   851.0    0.00 
 142   11:10   1.01   57.6    59    6.6   313    14.5   851.0    0.00 
 142   11:20   1.19   59.6    56    4.2   305    11.1   851.0    0.00 
 142   11:30   1.18   59.8    56    6.7   298    12.1   850.9    0.00 
 142   11:40   1.24   59.8    54    6.9   255    12.0   850.8    0.00 
 142   11:50   0.82   60.2    54    6.1   304    11.0   850.8    0.00 
 142   12:00   1.03   60.6    52    3.9   296     8.7   850.7    0.00 
 142   12:10   0.65   60.3    48    3.3   312     7.6   850.7    0.00 
 142   12:20   1.28   60.7    52    6.1   248    11.1   850.5    0.00 
 142   12:30   1.22   61.9    50    4.7   228    11.0   850.5    0.00 
 142   12:40   0.92   62.3    47    1.9   276     5.3   850.5    0.00 
 142   12:50   1.26   62.9    45    3.4    75     6.9   850.5    0.00 
 142   13:00   0.98   63.1    46    3.9    48     9.2   850.4    0.00 
 142   13:10   0.38   60.7    47    5.2   336     9.3   850.4    0.00 
 142   13:20   0.31   60.2    49    3.4   345     8.3   850.4    0.00 
 142   13:30   0.18   59.9    49    8.8    14    14.9   850.4    0.00 
 142   13:40   0.22   59.1    51    8.3    18    12.3   850.3    0.00 
 142   13:50   0.25   58.9    51    7.2    23    11.8   850.2    0.00 
 142   14:00   0.24   59.0    51    6.6    16     9.9   850.0    0.00 
 142   14:10   0.27   58.8    50    5.8    30     8.6   849.9    0.00 
 142   14:20   0.31   59.3    49    4.3    26     6.9   849.7    0.00 
 142   14:30   0.50   59.8    48    3.3    51     6.4   849.7    0.00 
 142   14:40   100.00  99999.0   99999  99999.0   99999   99999.0   99999.0   99999.00 
 142   14:50   0.60   61.5    44    4.4   170     8.2   849.7    0.00 
 142   15:00   0.48   61.2    45    3.6   173     7.4   849.8    0.00 
 142   15:10   0.42   61.7    45    3.6   151     5.7   849.9    0.00 
 142   15:20   0.52   61.8    45    3.0   147     6.5   849.9    0.00 
 142   15:30   0.33   62.3    42    2.0   109     4.6   849.9    0.00 
 142   15:40   0.23   61.9    43    1.6   113     4.7   849.9    0.00 
 142   15:50   0.31   61.8    46    4.0    35     8.6   849.8    0.00 
 142   16:00   0.16   61.2    45    3.7    21     7.2   849.7    0.00 
 142   16:10   0.14   61.0    45    3.0    16     5.5   849.9    0.00 
 142   16:20   0.16   60.8    44    2.0   334     4.1   849.7    0.00 
 142   16:30   0.11   60.8    45    2.1   336     6.3   849.9    0.00 
 142   16:40   0.04   57.7    54   13.2    13    22.1   850.4    0.00 
 142   16:50   0.01   55.0    61   11.7     8    18.9   850.4    0.00 
 142   17:00   0.01   52.7    73   10.1    21    15.2   850.4    0.02 
 142   17:10   0.01   51.6    78    8.2    20    12.3   850.4    0.00 
 142   17:20   0.02   52.2    77    7.2    18    10.1   850.4    0.01 
 142   17:30   0.03   52.8    76    6.1    14     9.0   850.6    0.00 
 142   17:40   0.04   52.9    76    2.6   342     4.7   850.7    0.00 
 142   17:50   0.03   52.6    77    4.1   299     6.4   850.8    0.00 
 142   18:00   0.02   52.5    77    4.5   305     7.1   850.9    0.01 
 142   18:10   0.02   52.2    79    4.5   240     7.7   850.8    0.01 
 142   18:20   0.02   53.0    73    7.5   269    15.7   850.9    0.00 
 142   18:30   0.01   53.3    70    6.5   271    14.8   851.1    0.00 
 142   18:40   0.01   53.8    67    8.0   226    14.5   851.2    0.00 
 142   18:50   0.01   53.3    72    3.8   228    11.2   851.3    0.00 
 142   19:00   0.00   53.1    71    6.7   251    14.0   851.5    0.00 
 142   19:10   0.00   53.8    69    9.8   351    19.9   851.7    0.00 
 142   19:20   0.00   51.8    78    9.0    46    15.6   852.0    0.01 
 142   19:30   0.00   50.4    84    6.7    52    11.5   852.1    0.00 
 142   19:40   0.00   50.2    86    4.2    51     6.6   852.3    0.02 
 142   19:50   0.00   50.2    86    4.2    45     6.8   852.3    0.02 
 142   20:00   0.00   50.0    85    3.7   339     6.0   852.6    0.01 
 142   20:10   0.00   49.6    87    2.8   258     6.6   852.7    0.02 
 142   20:20   0.00   49.5    88    3.5   220     6.1   852.7    0.01 
 142   20:30   0.00   49.5    89    3.5   214     4.6   852.8    0.01 
 142   20:40   0.00   49.7    89    4.9   195     7.5   852.8    0.00 
 142   20:50   0.00   49.8    88    4.4   176     7.9   852.8    0.00 
 142   21:00   0.00   49.8    88    6.6   196    10.4   852.9    0.00 
 142   21:10   0.00   49.8    87    4.7   219    11.7   853.0    0.00 
 142   21:20   0.00   49.7    88    6.4   209    10.7   853.0    0.00 
 142   21:30   0.00   49.5    88    3.8   204     8.6   853.0    0.00 
 142   21:40   0.00   49.7    88    3.4   169     7.2   853.0    0.00 
 142   21:50   0.00   49.7    88    3.4   151     6.8   853.0    0.00 
 142   22:00   0.00   50.2    84    3.4   176     5.3   852.9    0.01 
 142   22:10   0.00   50.4    83    2.3   165     4.4   852.8    0.00 
 142   22:20   0.00   50.9    80    3.9   169     6.2   852.8    0.00 
 142   22:30   0.00   50.6    84    4.9   168     8.5   852.8    0.00 
 142   22:40   0.00   50.4    85    4.6   159     6.8   852.7    0.00 
 142   22:50   0.00   50.1    88    4.5   166     6.6   852.8    0.00 
 142   23:00   0.00   50.2    87    4.3   167     6.8   852.8    0.00 
 142   23:10   0.00   50.5    86    4.9   173     9.5   852.8    0.00 
 142   23:20   0.00   51.1    81    2.9   177     6.4   852.8    0.00 
 142   23:30   0.00   51.3    80    1.4   255     4.0   852.9    0.00 
 142   23:40   0.00   50.9    82    1.3    96     2.6   852.9    0.00 
 142   23:50   0.00   50.6    84    1.3    32     3.6   852.8    0.00 
 143    0:00   0.00   50.4    83    0.2   299     1.2   852.7    0.00 
 143    0:10   0.00   50.2    84    0.4   275     1.5   852.7    0.00 
 143    0:20   0.00   50.1    85    0.4   248     2.3   852.8    0.00 
 143    0:30   0.00   50.0    86    1.3    84     3.1   852.7    0.00 
 143    0:40   0.00   49.9    88    1.5    79     3.4   852.7    0.00 

Return to Smith Valley graphs page.


Western Regional Climate Center,wrcc@dri.edu